Time;durP1;ratioP1;P1;durP2;ratioP2;P2;SDS_P1;SDS_P2;PMS_P1;PMS_P2;Temp;Humidity;BMP_temperature;BMP_pressure;BME280_temperature;BME280_humidity;BME280_pressure;Samples;Min_cycle;Max_cycle;Signal;HPM_P1;HPM_P2
2022/05/10 00:00:03;;;;;;;1.77;1.67;;;;;;;;;;4950799;29;20195;-79
2022/05/10 00:02:40;;;;;;;2.45;1.70;;;;;;;;;;4926258;29;20055;-79
2022/05/10 00:05:06;;;;;;;1.38;1.30;;;;;;;;;;4928156;29;20052;-80
2022/05/10 00:07:33;;;;;;;1.50;1.40;;;;;;;;;;4935808;29;20069;-80
2022/05/10 00:09:59;;;;;;;1.38;1.27;;;;;;;;;;4935659;29;20083;-81
2022/05/10 00:12:25;;;;;;;1.50;1.50;;;;;;;;;;4919138;29;20059;-80
2022/05/10 00:14:51;;;;;;;1.15;1.15;;;;;;;;;;4918223;29;20039;-80
2022/05/10 00:17:24;;;;;;;1.60;1.50;;;;;;;;;;4951350;29;20047;-80
2022/05/10 00:19:52;;;;;;;1.40;1.33;;;;;;;;;;4954202;29;20050;-81
2022/05/10 00:22:18;;;;;;;3.28;1.60;;;;;;;;;;4954644;29;20467;-80
2022/05/10 00:24:44;;;;;;;1.58;1.48;;;;;;;;;;4936382;29;20146;-79
2022/05/10 00:27:10;;;;;;;1.60;1.45;;;;;;;;;;4953921;29;20138;-79
2022/05/10 00:29:36;;;;;;;10.20;1.85;;;;;;;;;;4953576;29;20054;-80
2022/05/10 00:32:03;;;;;;;3.22;1.60;;;;;;;;;;4954003;29;20039;-80
2022/05/10 00:34:29;;;;;;;1.50;1.40;;;;;;;;;;4953892;29;20399;-79
2022/05/10 00:36:55;;;;;;;1.10;1.10;;;;;;;;;;4953565;29;20047;-80
2022/05/10 00:39:22;;;;;;;1.38;1.30;;;;;;;;;;4936718;29;20063;-79
2022/05/10 00:41:51;;;;;;;3.17;1.85;;;;;;;;;;4953498;29;20097;-78
2022/05/10 00:44:23;;;;;;;1.35;1.35;;;;;;;;;;4953499;29;20099;-80
2022/05/10 00:46:56;;;;;;;1.35;1.25;;;;;;;;;;4936252;29;20070;-80
2022/05/10 00:49:28;;;;;;;1.67;1.35;;;;;;;;;;4953731;29;20057;-79
2022/05/10 00:52:04;;;;;;;2.00;1.77;;;;;;;;;;4935917;29;20043;-79
2022/05/10 00:54:31;;;;;;;1.25;1.25;;;;;;;;;;4953486;29;20050;-79
2022/05/10 00:57:15;;;;;;;1.77;1.67;;;;;;;;;;4953275;29;20550;-79
2022/05/10 00:59:56;;;;;;;1.73;1.55;;;;;;;;;;4954522;29;20051;-79
2022/05/10 01:02:28;;;;;;;2.05;1.52;;;;;;;;;;4955066;29;20043;-79
2022/05/10 01:04:56;;;;;;;1.67;1.58;;;;;;;;;;4936199;29;20118;-77
2022/05/10 01:07:49;;;;;;;1.40;1.30;;;;;;;;;;4935949;29;20043;-78
2022/05/10 01:10:36;;;;;;;1.40;1.40;;;;;;;;;;4944841;29;20525;-79
2022/05/10 01:13:05;;;;;;;1.63;1.50;;;;;;;;;;4952622;28;20561;-79
2022/05/10 01:15:31;;;;;;;1.65;1.38;;;;;;;;;;4936072;29;20106;-80
2022/05/10 01:17:57;;;;;;;3.17;1.65;;;;;;;;;;4935642;29;20265;-80
2022/05/10 01:20:35;;;;;;;6.63;2.10;;;;;;;;;;4919835;29;20377;-79
2022/05/10 01:23:31;;;;;;;1.60;1.50;;;;;;;;;;4935449;29;20506;-79
2022/05/10 01:26:04;;;;;;;1.80;1.70;;;;;;;;;;4937242;29;20051;-80
2022/05/10 01:28:30;;;;;;;1.50;1.50;;;;;;;;;;4951385;29;20510;-80
2022/05/10 01:30:57;;;;;;;1.60;1.50;;;;;;;;;;4935275;29;20042;-80
2022/05/10 01:33:31;;;;;;;1.80;1.70;;;;;;;;;;4919734;29;20085;-79
2022/05/10 01:36:07;;;;;;;1.80;1.70;;;;;;;;;;4936230;29;20042;-78
2022/05/10 01:38:51;;;;;;;1.85;1.75;;;;;;;;;;4952713;29;20102;-79
2022/05/10 01:41:21;;;;;;;2.75;1.55;;;;;;;;;;4952474;29;20545;-79
2022/05/10 01:43:49;;;;;;;1.65;1.55;;;;;;;;;;4952204;29;20101;-78
2022/05/10 01:46:22;;;;;;;1.60;1.52;;;;;;;;;;4952993;29;20126;-80
2022/05/10 01:48:49;;;;;;;1.55;1.45;;;;;;;;;;4964361;29;20043;-77
2022/05/10 01:51:17;;;;;;;3.28;1.85;;;;;;;;;;4953388;29;20474;-77
2022/05/10 01:53:43;;;;;;;1.55;1.45;;;;;;;;;;4952039;29;20270;-80
2022/05/10 01:56:22;;;;;;;1.80;1.70;;;;;;;;;;4952459;29;20043;-78
2022/05/10 01:58:48;;;;;;;1.83;1.73;;;;;;;;;;4934846;29;20058;-80
2022/05/10 02:01:32;;;;;;;1.95;1.85;;;;;;;;;;4952474;29;20149;-80
2022/05/10 02:04:09;;;;;;;3.22;1.90;;;;;;;;;;4934252;29;20063;-79
2022/05/10 02:06:43;;;;;;;2.53;1.90;;;;;;;;;;4919068;29;20043;-79
2022/05/10 02:09:08;;;;;;;3.95;1.83;;;;;;;;;;4934561;29;20055;-79
2022/05/10 02:11:48;;;;;;;2.70;2.08;;;;;;;;;;4952094;29;20051;-81
2022/05/10 02:14:16;;;;;;;4.15;1.83;;;;;;;;;;4935041;29;20081;-81
2022/05/10 02:16:44;;;;;;;2.00;1.90;;;;;;;;;;4935206;29;20054;-80
2022/05/10 02:19:15;;;;;;;2.97;1.83;;;;;;;;;;4930215;29;20047;-79
2022/05/10 02:21:48;;;;;;;1.85;1.73;;;;;;;;;;4951698;29;20043;-80
2022/05/10 02:24:16;;;;;;;2.03;1.60;;;;;;;;;;4950728;28;20051;-79
2022/05/10 02:26:44;;;;;;;2.05;1.52;;;;;;;;;;4934577;29;20051;-80
2022/05/10 02:29:13;;;;;;;2.00;1.90;;;;;;;;;;4951859;29;20057;-80
2022/05/10 02:34:27;;;;;;;1.58;1.48;;;;;;;;;;4933027;29;20043;-81
2022/05/10 02:36:53;;;;;;;1.80;1.70;;;;;;;;;;4932888;29;20036;-77
2022/05/10 02:39:19;;;;;;;3.90;1.80;;;;;;;;;;4915121;29;20055;-74
2022/05/10 02:41:45;;;;;;;1.90;1.80;;;;;;;;;;4932077;29;20144;-75
2022/05/10 02:44:11;;;;;;;1.92;1.83;;;;;;;;;;4931685;29;20043;-75
2022/05/10 02:46:37;;;;;;;2.67;2.03;;;;;;;;;;4932076;29;20063;-76
2022/05/10 02:49:03;;;;;;;1.98;1.88;;;;;;;;;;4898931;29;20495;-76
2022/05/10 02:51:29;;;;;;;1.73;1.63;;;;;;;;;;4923549;29;20534;-75
2022/05/10 02:53:55;;;;;;;3.10;2.00;;;;;;;;;;4912614;29;20079;-76
2022/05/10 02:56:23;;;;;;;1.92;1.83;;;;;;;;;;4896144;29;20040;-76
2022/05/10 02:58:52;;;;;;;3.45;1.95;;;;;;;;;;4879974;29;20040;-76
2022/05/10 03:01:30;;;;;;;1.95;1.85;;;;;;;;;;4895711;29;20064;-77
2022/05/10 03:03:56;;;;;;;2.33;2.13;;;;;;;;;;4903556;29;20191;-76
2022/05/10 03:06:23;;;;;;;1.92;1.73;;;;;;;;;;4937428;29;20147;-76
2022/05/10 03:08:48;;;;;;;1.80;1.70;;;;;;;;;;4943607;29;20081;-77
2022/05/10 03:11:14;;;;;;;1.67;1.58;;;;;;;;;;4950901;29;20047;-74
2022/05/10 03:13:40;;;;;;;3.78;2.10;;;;;;;;;;4933431;29;20417;-77
2022/05/10 03:16:07;;;;;;;2.00;1.80;;;;;;;;;;4933470;29;20051;-77
2022/05/10 03:18:33;;;;;;;2.17;1.95;;;;;;;;;;4950657;29;20050;-76
2022/05/10 03:20:58;;;;;;;1.80;1.70;;;;;;;;;;4950393;29;20129;-77
2022/05/10 03:23:24;;;;;;;2.85;1.95;;;;;;;;;;4950678;29;20506;-77
2022/05/10 03:25:50;;;;;;;1.90;1.80;;;;;;;;;;4950358;29;20055;-75
2022/05/10 03:28:16;;;;;;;1.75;1.67;;;;;;;;;;4944618;29;20104;-76
2022/05/10 03:30:42;;;;;;;2.03;1.90;;;;;;;;;;4917667;29;20067;-75
2022/05/10 03:33:08;;;;;;;2.45;1.92;;;;;;;;;;4946993;29;20063;-73
2022/05/10 03:35:34;;;;;;;1.83;1.70;;;;;;;;;;4946429;28;20078;-73
2022/05/10 03:38:01;;;;;;;2.10;2.00;;;;;;;;;;4954542;29;20485;-74
2022/05/10 03:40:26;;;;;;;2.20;2.10;;;;;;;;;;4938351;29;20055;-73
2022/05/10 03:42:53;;;;;;;3.42;2.15;;;;;;;;;;4935217;29;20047;-73
2022/05/10 03:45:20;;;;;;;1.52;1.45;;;;;;;;;;4935083;29;20055;-73
2022/05/10 03:47:46;;;;;;;2.13;1.92;;;;;;;;;;4918324;29;20071;-73
2022/05/10 03:50:12;;;;;;;1.80;1.70;;;;;;;;;;4935126;29;20044;-73
2022/05/10 03:52:38;;;;;;;1.70;1.60;;;;;;;;;;4950105;29;20050;-71
2022/05/10 03:55:05;;;;;;;1.63;1.52;;;;;;;;;;4953853;29;20195;-71
2022/05/10 03:57:31;;;;;;;2.88;1.80;;;;;;;;;;4954245;29;20127;-73
2022/05/10 03:59:57;;;;;;;1.75;1.65;;;;;;;;;;4953962;29;20636;-73
2022/05/10 04:02:23;;;;;;;2.92;1.90;;;;;;;;;;4954223;29;20066;-72
2022/05/10 04:04:49;;;;;;;3.00;1.67;;;;;;;;;;4953611;28;20603;-73
2022/05/10 04:07:16;;;;;;;1.77;1.65;;;;;;;;;;4955619;28;20478;-73
2022/05/10 04:09:42;;;;;;;1.65;1.55;;;;;;;;;;4943193;29;20569;-73
2022/05/10 04:12:08;;;;;;;1.95;1.80;;;;;;;;;;4934704;29;20044;-73
2022/05/10 04:14:34;;;;;;;2.85;1.80;;;;;;;;;;4934725;29;20514;-76
2022/05/10 04:17:00;;;;;;;2.33;1.90;;;;;;;;;;4934782;29;20467;-74
2022/05/10 04:19:26;;;;;;;3.50;1.88;;;;;;;;;;4945442;29;20130;-74
2022/05/10 04:21:51;;;;;;;1.75;1.60;;;;;;;;;;4947855;29;20040;-77
2022/05/10 04:24:17;;;;;;;1.85;1.75;;;;;;;;;;4953532;29;20462;-77
2022/05/10 04:26:43;;;;;;;4.10;1.80;;;;;;;;;;4954010;29;20043;-78
2022/05/10 04:29:09;;;;;;;3.65;2.22;;;;;;;;;;4953551;29;20066;-75
2022/05/10 04:31:35;;;;;;;2.88;1.92;;;;;;;;;;4954006;29;20054;-75
2022/05/10 04:34:01;;;;;;;2.10;1.90;;;;;;;;;;4936447;29;20510;-80
2022/05/10 04:36:27;;;;;;;1.92;1.83;;;;;;;;;;4954106;29;20240;-80
2022/05/10 04:38:53;;;;;;;2.97;1.50;;;;;;;;;;4953802;29;20510;-79
2022/05/10 04:41:24;;;;;;;4.50;1.85;;;;;;;;;;4937647;29;20050;-78
2022/05/10 04:43:50;;;;;;;1.70;1.60;;;;;;;;;;4940088;29;20058;-77
2022/05/10 04:46:16;;;;;;;1.50;1.50;;;;;;;;;;4934581;29;20047;-77
2022/05/10 04:48:43;;;;;;;1.75;1.65;;;;;;;;;;4925415;29;20108;-77
2022/05/10 04:51:09;;;;;;;1.60;1.50;;;;;;;;;;4935862;29;20039;-80
2022/05/10 04:53:35;;;;;;;1.38;1.38;;;;;;;;;;4943198;29;20399;-80
2022/05/10 04:56:03;;;;;;;1.85;1.75;;;;;;;;;;4937370;29;20519;-78
2022/05/10 04:58:29;;;;;;;2.58;1.67;;;;;;;;;;4924731;29;20051;-76
2022/05/10 05:00:55;;;;;;;2.17;1.90;;;;;;;;;;4933976;29;20040;-76
2022/05/10 05:03:21;;;;;;;1.60;1.50;;;;;;;;;;4916823;29;20060;-79
2022/05/10 05:05:47;;;;;;;3.20;2.10;;;;;;;;;;4934272;29;20654;-78
2022/05/10 05:08:13;;;;;;;2.85;1.85;;;;;;;;;;4933726;29;20048;-78
2022/05/10 05:10:39;;;;;;;1.80;1.70;;;;;;;;;;4928567;29;20044;-79
2022/05/10 05:13:05;;;;;;;1.95;1.75;;;;;;;;;;4935936;29;20047;-78
2022/05/10 05:15:31;;;;;;;1.48;1.40;;;;;;;;;;4953131;29;20055;-78
2022/05/10 05:17:56;;;;;;;2.45;1.63;;;;;;;;;;4952934;29;20091;-78
2022/05/10 05:20:22;;;;;;;1.50;1.50;;;;;;;;;;4949465;29;20107;-71
2022/05/10 05:22:52;;;;;;;2.38;2.15;;;;;;;;;;4953461;29;20043;-72
2022/05/10 05:25:18;;;;;;;2.90;1.70;;;;;;;;;;4952990;29;20070;-73
2022/05/10 05:27:44;;;;;;;4.75;1.73;;;;;;;;;;4946697;29;20050;-74
2022/05/10 05:30:11;;;;;;;2.13;1.90;;;;;;;;;;4936307;29;20062;-73
2022/05/10 05:32:36;;;;;;;2.60;2.40;;;;;;;;;;4935590;29;20179;-74
2022/05/10 05:35:03;;;;;;;2.38;1.90;;;;;;;;;;4944036;29;20130;-73
2022/05/10 05:37:35;;;;;;;2.78;1.75;;;;;;;;;;4946623;29;20043;-73
2022/05/10 05:40:01;;;;;;;1.95;1.40;;;;;;;;;;4940095;28;20198;-73
2022/05/10 05:42:28;;;;;;;5.00;1.60;;;;;;;;;;4943034;29;20032;-73
2022/05/10 05:44:54;;;;;;;1.67;1.15;;;;;;;;;;4945879;29;20054;-74
2022/05/10 05:47:20;;;;;;;1.52;1.42;;;;;;;;;;4952918;29;20128;-75
2022/05/10 05:49:46;;;;;;;1.70;1.60;;;;;;;;;;4945939;29;20051;-75
2022/05/10 05:52:13;;;;;;;2.00;1.52;;;;;;;;;;4937713;29;20058;-76
2022/05/10 05:54:39;;;;;;;1.58;1.48;;;;;;;;;;4936434;29;20507;-79
2022/05/10 05:57:05;;;;;;;1.73;1.50;;;;;;;;;;4932527;29;20043;-79
2022/05/10 05:59:31;;;;;;;4.40;1.40;;;;;;;;;;4930709;29;20518;-78
2022/05/10 06:01:57;;;;;;;1.73;1.70;;;;;;;;;;4932550;29;20031;-71
2022/05/10 06:04:23;;;;;;;1.50;1.40;;;;;;;;;;4943341;29;20051;-72
2022/05/10 06:06:49;;;;;;;3.60;1.30;;;;;;;;;;4939157;28;20058;-72
2022/05/10 06:09:15;;;;;;;1.30;1.20;;;;;;;;;;4943073;29;20039;-72
2022/05/10 06:11:41;;;;;;;2.90;1.40;;;;;;;;;;4942402;29;20542;-73
2022/05/10 06:14:07;;;;;;;2.58;1.70;;;;;;;;;;4942002;29;20321;-73
2022/05/10 06:16:33;;;;;;;5.63;2.40;;;;;;;;;;4941998;29;20723;-71
2022/05/10 06:18:58;;;;;;;3.50;1.60;;;;;;;;;;4943457;29;20043;-72
2022/05/10 06:21:24;;;;;;;1.45;1.30;;;;;;;;;;4946850;29;20410;-74
2022/05/10 06:23:50;;;;;;;5.85;1.80;;;;;;;;;;4944251;29;20618;-72
2022/05/10 06:26:16;;;;;;;1.45;1.35;;;;;;;;;;4924828;29;20130;-73
2022/05/10 06:28:42;;;;;;;1.00;1.00;;;;;;;;;;4937738;29;20035;-72
2022/05/10 06:31:08;;;;;;;1.25;1.17;;;;;;;;;;4938812;29;20134;-71
2022/05/10 06:33:34;;;;;;;1.88;1.05;;;;;;;;;;4938392;29;20122;-72
2022/05/10 06:36:00;;;;;;;5.25;1.50;;;;;;;;;;4940960;29;20439;-72
2022/05/10 06:38:27;;;;;;;1.20;1.13;;;;;;;;;;4923797;29;20542;-74
2022/05/10 06:40:53;;;;;;;1.48;1.45;;;;;;;;;;4938152;29;20454;-70
2022/05/10 06:43:19;;;;;;;2.47;1.35;;;;;;;;;;4922680;29;20051;-71
2022/05/10 06:45:46;;;;;;;1.40;1.30;;;;;;;;;;4920466;29;20043;-71
2022/05/10 06:48:12;;;;;;;1.85;1.20;;;;;;;;;;4936972;29;20039;-72
2022/05/10 06:50:38;;;;;;;2.30;1.10;;;;;;;;;;4940423;29;20419;-72
2022/05/10 06:53:04;;;;;;;1.20;1.20;;;;;;;;;;4943468;29;20040;-73
2022/05/10 06:55:30;;;;;;;1.30;1.20;;;;;;;;;;4942546;29;20043;-71
2022/05/10 06:57:56;;;;;;;5.40;1.48;;;;;;;;;;4940831;29;20419;-72
2022/05/10 07:00:22;;;;;;;2.35;1.48;;;;;;;;;;4943874;29;20592;-72
2022/05/10 07:02:48;;;;;;;7.57;1.55;;;;;;;;;;4945701;29;20043;-71
2022/05/10 07:05:14;;;;;;;3.15;1.40;;;;;;;;;;4942727;28;20548;-72
2022/05/10 07:07:40;;;;;;;3.97;1.50;;;;;;;;;;4943986;29;20262;-72
2022/05/10 07:10:10;;;;;;;2.13;1.48;;;;;;;;;;4944662;28;20514;-72
2022/05/10 07:12:37;;;;;;;1.52;1.42;;;;;;;;;;4944300;29;20039;-71
2022/05/10 07:15:03;;;;;;;3.33;1.45;;;;;;;;;;4945695;29;20043;-71
2022/05/10 07:17:29;;;;;;;7.05;1.25;;;;;;;;;;4926348;29;20049;-72
2022/05/10 07:19:56;;;;;;;4.10;1.50;;;;;;;;;;4946511;29;20041;-71
2022/05/10 07:22:21;;;;;;;3.63;1.40;;;;;;;;;;4945678;29;20417;-71
2022/05/10 07:24:47;;;;;;;2.40;1.00;;;;;;;;;;4944386;28;20141;-72
2022/05/10 07:27:13;;;;;;;1.02;1.02;;;;;;;;;;4926398;29;20047;-72
2022/05/10 07:29:39;;;;;;;2.80;1.45;;;;;;;;;;4941570;28;20391;-72
2022/05/10 07:32:08;;;;;;;1.98;1.52;;;;;;;;;;4950037;28;20497;-71
2022/05/10 07:34:34;;;;;;;2.72;1.90;;;;;;;;;;4931262;28;20058;-71
2022/05/10 07:37:00;;;;;;;9.38;1.92;;;;;;;;;;4948107;28;20082;-71
2022/05/10 07:39:26;;;;;;;4.43;1.45;;;;;;;;;;4950298;28;20057;-78
2022/05/10 07:41:54;;;;;;;1.75;1.30;;;;;;;;;;4942558;28;20054;-78
2022/05/10 07:44:21;;;;;;;1.33;1.23;;;;;;;;;;4942444;28;20039;-79
2022/05/10 07:46:47;;;;;;;3.67;1.30;;;;;;;;;;4942393;29;20121;-80
2022/05/10 07:49:13;;;;;;;5.53;1.52;;;;;;;;;;4925192;29;20043;-81
2022/05/10 07:51:38;;;;;;;2.28;1.67;;;;;;;;;;4943862;29;20050;-80
2022/05/10 07:54:04;;;;;;;5.50;1.40;;;;;;;;;;4941239;29;20044;-80
2022/05/10 07:56:30;;;;;;;2.03;1.48;;;;;;;;;;4944045;29;20047;-78
2022/05/10 07:58:56;;;;;;;2.85;1.30;;;;;;;;;;4939549;29;20036;-79
2022/05/10 08:01:22;;;;;;;3.53;1.35;;;;;;;;;;4944201;29;20525;-80
2022/05/10 08:03:48;;;;;;;8.23;1.35;;;;;;;;;;4944682;29;20649;-78
2022/05/10 08:06:16;;;;;;;9.32;1.23;;;;;;;;;;4944025;29;20055;-80
2022/05/10 08:08:41;;;;;;;1.40;1.30;;;;;;;;;;4925294;29;20042;-80
2022/05/10 08:11:08;;;;;;;1.90;1.58;;;;;;;;;;4945316;29;20048;-79
2022/05/10 08:13:34;;;;;;;1.90;1.50;;;;;;;;;;4946768;29;20034;-78
2022/05/10 08:16:00;;;;;;;2.72;1.60;;;;;;;;;;4945679;29;20063;-79
2022/05/10 08:18:26;;;;;;;4.63;1.55;;;;;;;;;;4926341;29;20042;-79
2022/05/10 08:20:53;;;;;;;7.22;1.83;;;;;;;;;;4946141;29;20051;-79
2022/05/10 08:23:23;;;;;;;7.57;1.48;;;;;;;;;;4946458;28;20055;-80
2022/05/10 08:25:49;;;;;;;3.03;1.80;;;;;;;;;;4946323;29;20081;-79
2022/05/10 08:28:15;;;;;;;8.00;1.92;;;;;;;;;;4948208;28;20570;-78
2022/05/10 08:30:41;;;;;;;9.00;2.20;;;;;;;;;;4948434;29;20130;-80
2022/05/10 08:33:10;;;;;;;4.63;2.45;;;;;;;;;;4927196;29;20124;-79
2022/05/10 08:35:38;;;;;;;1.42;1.27;;;;;;;;;;4947886;29;20502;-80
2022/05/10 08:38:04;;;;;;;2.33;1.50;;;;;;;;;;4946676;29;20047;-79
2022/05/10 08:40:34;;;;;;;2.58;1.50;;;;;;;;;;4947273;29;20200;-77
2022/05/10 08:43:01;;;;;;;5.63;1.30;;;;;;;;;;4931251;29;20117;-77
2022/05/10 08:45:27;;;;;;;2.40;1.80;;;;;;;;;;4925220;29;20083;-76
2022/05/10 08:47:53;;;;;;;3.05;1.52;;;;;;;;;;4925269;29;20123;-79
2022/05/10 08:50:19;;;;;;;4.78;1.63;;;;;;;;;;4929637;29;20133;-79
2022/05/10 08:52:45;;;;;;;9.18;2.35;;;;;;;;;;4931724;29;20047;-79
2022/05/10 08:55:12;;;;;;;5.22;1.42;;;;;;;;;;4960374;29;20597;-79
2022/05/10 08:57:38;;;;;;;5.50;1.95;;;;;;;;;;4946573;29;20039;-80
2022/05/10 09:00:04;;;;;;;3.13;1.50;;;;;;;;;;4943762;29;20126;-79
2022/05/10 09:02:39;;;;;;;1.50;1.30;;;;;;;;;;4948597;29;20035;-78
2022/05/10 09:05:05;;;;;;;3.67;1.60;;;;;;;;;;4947472;29;20071;-78
2022/05/10 09:07:34;;;;;;;2.60;1.60;;;;;;;;;;4948138;28;20086;-78
2022/05/10 09:10:01;;;;;;;1.48;1.35;;;;;;;;;;4946358;29;20067;-79
2022/05/10 09:12:28;;;;;;;2.65;1.20;;;;;;;;;;4935017;29;20049;-79
2022/05/10 09:15:06;;;;;;;1.88;1.27;;;;;;;;;;4950999;29;20057;-78
2022/05/10 09:17:33;;;;;;;1.70;1.60;;;;;;;;;;4953492;29;20126;-77
2022/05/10 09:19:59;;;;;;;4.88;1.48;;;;;;;;;;4935356;29;20043;-76
2022/05/10 09:22:33;;;;;;;4.15;2.03;;;;;;;;;;4948466;28;20419;-78
2022/05/10 09:24:59;;;;;;;1.40;1.33;;;;;;;;;;4944980;29;20549;-76
2022/05/10 09:27:31;;;;;;;1.92;1.20;;;;;;;;;;4948850;29;20522;-78
2022/05/10 09:29:58;;;;;;;8.10;1.50;;;;;;;;;;4916462;29;20138;-76
2022/05/10 09:35:18;;;;;;;1.92;1.17;;;;;;;;;;4929778;29;20077;-77
2022/05/10 09:37:48;;;;;;;7.05;1.42;;;;;;;;;;4922065;29;20537;-78
2022/05/10 09:40:32;;;;;;;2.53;1.48;;;;;;;;;;4940199;29;20078;-75
2022/05/10 09:43:10;;;;;;;2.25;1.60;;;;;;;;;;4940116;29;20079;-76
2022/05/10 09:45:36;;;;;;;2.28;1.30;;;;;;;;;;4941213;29;20449;-76
2022/05/10 09:48:10;;;;;;;4.63;2.03;;;;;;;;;;4941913;29;20138;-76
2022/05/10 09:50:40;;;;;;;2.08;1.17;;;;;;;;;;4890023;29;20089;-76
2022/05/10 09:53:18;;;;;;;3.55;1.70;;;;;;;;;;4938157;29;20040;-75
2022/05/10 09:55:57;;;;;;;5.40;1.45;;;;;;;;;;4940042;29;20053;-75
2022/05/10 09:58:24;;;;;;;10.25;1.80;;;;;;;;;;4921338;29;20106;-74
2022/05/10 10:00:55;;;;;;;8.52;2.08;;;;;;;;;;4921526;29;20051;-74
2022/05/10 10:03:26;;;;;;;4.00;2.45;;;;;;;;;;4945826;28;20112;-71
2022/05/10 10:05:56;;;;;;;4.95;1.90;;;;;;;;;;4942132;29;20059;-72
2022/05/10 10:08:36;;;;;;;2.92;1.80;;;;;;;;;;4941069;29;20059;-73
2022/05/10 10:11:06;;;;;;;2.35;1.50;;;;;;;;;;4939949;29;20149;-73
2022/05/10 10:13:37;;;;;;;1.98;1.48;;;;;;;;;;4923085;29;20035;-72
2022/05/10 10:16:12;;;;;;;3.70;1.45;;;;;;;;;;4925394;29;20044;-73
2022/05/10 10:18:40;;;;;;;2.92;1.58;;;;;;;;;;4922464;29;20039;-73
2022/05/10 10:21:07;;;;;;;1.70;1.60;;;;;;;;;;4920436;29;20164;-73
2022/05/10 10:23:41;;;;;;;1.73;1.40;;;;;;;;;;4945509;29;20043;-72
2022/05/10 10:26:16;;;;;;;3.88;1.30;;;;;;;;;;4937932;29;20059;-73
2022/05/10 10:28:42;;;;;;;4.70;1.48;;;;;;;;;;4942796;29;20043;-72
2022/05/10 10:31:13;;;;;;;1.65;1.30;;;;;;;;;;4923470;29;20039;-73
2022/05/10 10:33:39;;;;;;;;;;;;;;;;;;4924750;29;20131;-73
2022/05/10 10:36:06;;;;;;;1.95;1.73;;;;;;;;;;4941657;29;19990;-73
2022/05/10 10:38:44;;;;;;;2.55;2.08;;;;;;;;;;4907593;29;20106;-72
2022/05/10 10:41:18;;;;;;;1.50;1.40;;;;;;;;;;4922468;29;20471;-73
2022/05/10 10:43:49;;;;;;;2.45;1.50;;;;;;;;;;4920989;28;20043;-73
2022/05/10 10:46:18;;;;;;;1.60;1.50;;;;;;;;;;4909078;29;20058;-73
2022/05/10 10:48:57;;;;;;;1.42;1.33;;;;;;;;;;4937370;29;20039;-73
2022/05/10 10:51:23;;;;;;;4.35;1.50;;;;;;;;;;4923820;29;20048;-73
2022/05/10 10:53:49;;;;;;;1.42;1.30;;;;;;;;;;4937801;29;20111;-73
2022/05/10 10:56:18;;;;;;;1.02;1.02;;;;;;;;;;4940000;29;20039;-72
2022/05/10 10:59:00;;;;;;;1.67;1.35;;;;;;;;;;4940990;29;20463;-74
2022/05/10 11:01:30;;;;;;;4.60;1.55;;;;;;;;;;4909516;29;20103;-76
2022/05/10 11:03:56;;;;;;;1.65;1.40;;;;;;;;;;4925707;29;20140;-75
2022/05/10 11:06:26;;;;;;;1.65;1.55;;;;;;;;;;4938421;29;20061;-77
2022/05/10 11:08:54;;;;;;;2.35;1.40;;;;;;;;;;4921057;29;20135;-73
2022/05/10 11:11:39;;;;;;;2.08;1.98;;;;;;;;;;4940388;29;20122;-75
2022/05/10 11:14:22;;;;;;;16.52;1.83;;;;;;;;;;4941473;29;20039;-75
2022/05/10 11:17:00;;;;;;;2.22;1.20;;;;;;;;;;4923161;29;20043;-77
2022/05/10 11:19:44;;;;;;;4.40;1.83;;;;;;;;;;4938223;29;20442;-79
2022/05/10 11:22:26;;;;;;;1.95;1.33;;;;;;;;;;4938147;29;20098;-76
2022/05/10 11:25:06;;;;;;;3.78;1.35;;;;;;;;;;4926477;29;20545;-75
2022/05/10 11:27:37;;;;;;;1.80;1.70;;;;;;;;;;4945189;28;20522;-73
2022/05/10 11:30:07;;;;;;;1.73;1.63;;;;;;;;;;4905850;29;20045;-75
2022/05/10 11:32:52;;;;;;;7.82;1.60;;;;;;;;;;4914313;29;20078;-74
2022/05/10 11:35:36;;;;;;;7.03;2.40;;;;;;;;;;4936921;28;20042;-73
2022/05/10 11:38:13;;;;;;;3.20;2.13;;;;;;;;;;4942745;29;20040;-74
2022/05/10 11:40:39;;;;;;;2.80;2.30;;;;;;;;;;4937639;29;20134;-75
2022/05/10 11:43:08;;;;;;;2.60;2.40;;;;;;;;;;4939092;29;20130;-76
2022/05/10 11:45:43;;;;;;;1.90;1.80;;;;;;;;;;4923053;29;20058;-75
2022/05/10 11:48:18;;;;;;;2.45;2.25;;;;;;;;;;4922897;29;20092;-74
2022/05/10 11:54:09;;;;;;;4.60;2.08;;;;;;;;;;4909389;29;20040;-74
2022/05/10 11:56:36;;;;;;;1.83;1.75;;;;;;;;;;4924301;29;20416;-74
2022/05/10 11:59:03;;;;;;;2.25;2.15;;;;;;;;;;4944988;28;20078;-74
2022/05/10 12:01:41;;;;;;;1.85;1.75;;;;;;;;;;4943119;29;20584;-74
2022/05/10 12:04:07;;;;;;;2.38;1.83;;;;;;;;;;4944384;29;20050;-73
2022/05/10 12:06:33;;;;;;;11.95;2.33;;;;;;;;;;4923385;29;20043;-73
2022/05/10 12:09:01;;;;;;;1.85;1.70;;;;;;;;;;4926291;29;20043;-73
2022/05/10 12:11:27;;;;;;;2.05;1.85;;;;;;;;;;4912207;29;20105;-74
2022/05/10 12:22:10;;;;;;;2.00;1.90;;;;;;;;;;4943953;29;20134;-75
2022/05/10 12:24:44;;;;;;;1.85;1.75;;;;;;;;;;4945190;28;20086;-73
2022/05/10 12:27:11;;;;;;;3.05;1.70;;;;;;;;;;4926652;29;20102;-73
2022/05/10 12:29:40;;;;;;;1.55;1.45;;;;;;;;;;4942889;29;20107;-73
2022/05/10 12:32:09;;;;;;;1.90;1.80;;;;;;;;;;4949031;29;20031;-74
2022/05/10 12:34:38;;;;;;;1.38;1.38;;;;;;;;;;4932627;29;20048;-75
2022/05/10 12:37:37;;;;;;;2.33;1.38;;;;;;;;;;4949702;29;20031;-74
2022/05/10 12:40:03;;;;;;;1.80;1.50;;;;;;;;;;4931239;29;20521;-73
2022/05/10 12:42:38;;;;;;;2.03;1.75;;;;;;;;;;4941568;29;20540;-74
2022/05/10 12:45:13;;;;;;;1.77;1.55;;;;;;;;;;4944845;29;20044;-74
2022/05/10 12:47:57;;;;;;;1.13;1.10;;;;;;;;;;4943846;29;20224;-73
2022/05/10 12:50:44;;;;;;;1.90;1.80;;;;;;;;;;4942386;29;20131;-72
2022/05/10 12:53:30;;;;;;;3.15;1.90;;;;;;;;;;4922320;29;20035;-73
2022/05/10 12:56:22;;;;;;;3.17;1.90;;;;;;;;;;4907886;29;20046;-73
2022/05/10 12:58:59;;;;;;;1.45;1.35;;;;;;;;;;4936636;29;20069;-72
2022/05/10 13:01:27;;;;;;;2.42;1.83;;;;;;;;;;4943468;28;20047;-73
2022/05/10 13:03:54;;;;;;;4.13;1.88;;;;;;;;;;4923055;29;20056;-73
2022/05/10 13:06:22;;;;;;;3.13;2.22;;;;;;;;;;4914326;29;20060;-74
2022/05/10 13:09:05;;;;;;;3.00;1.90;;;;;;;;;;4910801;29;20035;-73
2022/05/10 13:11:41;;;;;;;4.72;2.20;;;;;;;;;;4915973;29;20672;-74
2022/05/10 13:14:08;;;;;;;2.22;2.10;;;;;;;;;;4923187;29;20046;-73
2022/05/10 13:16:35;;;;;;;3.05;2.40;;;;;;;;;;4940567;29;20071;-74
2022/05/10 13:19:02;;;;;;;2.15;2.05;;;;;;;;;;4909234;29;20042;-75
2022/05/10 13:21:28;;;;;;;7.55;2.42;;;;;;;;;;4921390;29;20415;-73
2022/05/10 13:23:55;;;;;;;8.25;2.00;;;;;;;;;;4893685;29;20042;-73
2022/05/10 13:26:22;;;;;;;6.40;2.00;;;;;;;;;;4910010;29;20055;-74
2022/05/10 13:28:55;;;;;;;3.78;2.00;;;;;;;;;;4925424;29;20075;-78
2022/05/10 13:31:22;;;;;;;2.72;2.45;;;;;;;;;;4944232;28;20094;-74
2022/05/10 13:33:48;;;;;;;6.35;2.45;;;;;;;;;;4940144;29;20075;-74
2022/05/10 13:36:16;;;;;;;6.75;2.42;;;;;;;;;;4922209;29;20070;-73
2022/05/10 13:38:45;;;;;;;3.20;2.28;;;;;;;;;;4925500;28;20483;-75
2022/05/10 13:41:12;;;;;;;2.67;2.08;;;;;;;;;;4941424;29;20043;-72
2022/05/10 13:43:41;;;;;;;4.45;2.30;;;;;;;;;;4923075;29;20528;-72
2022/05/10 13:46:16;;;;;;;6.43;2.53;;;;;;;;;;4943124;29;20062;-74
2022/05/10 13:48:46;;;;;;;3.72;2.17;;;;;;;;;;4919779;29;20047;-74
2022/05/10 13:51:15;;;;;;;5.80;2.37;;;;;;;;;;4938117;29;20044;-73
2022/05/10 13:53:40;;;;;;;3.58;1.83;;;;;;;;;;4901858;29;20496;-74
2022/05/10 13:56:10;;;;;;;6.85;2.20;;;;;;;;;;4940124;29;20039;-74
2022/05/10 13:58:37;;;;;;;2.53;1.65;;;;;;;;;;4918677;29;20533;-75
2022/05/10 14:01:04;;;;;;;4.70;2.17;;;;;;;;;;4940299;29;20051;-77
2022/05/10 14:03:30;;;;;;;2.67;1.65;;;;;;;;;;4920372;29;20073;-74
2022/05/10 14:06:00;;;;;;;2.45;1.80;;;;;;;;;;4923018;29;20049;-74
2022/05/10 14:08:26;;;;;;;1.95;1.60;;;;;;;;;;4923428;29;20102;-74
2022/05/10 14:11:09;;;;;;;3.60;1.60;;;;;;;;;;4922045;29;20050;-73
2022/05/10 14:13:47;;;;;;;3.20;1.70;;;;;;;;;;4939735;29;20040;-72
2022/05/10 14:16:13;;;;;;;1.70;1.60;;;;;;;;;;4923788;29;20047;-73
2022/05/10 14:18:39;;;;;;;1.98;1.33;;;;;;;;;;4922177;29;20066;-73
2022/05/10 14:21:10;;;;;;;3.15;1.80;;;;;;;;;;4940332;29;20049;-73
2022/05/10 14:23:36;;;;;;;;;;;;;;;;;;4942080;29;20073;-72
2022/05/10 14:26:21;;;;;;;8.98;1.80;;;;;;;;;;4936611;29;20467;-75
2022/05/10 14:28:54;;;;;;;2.17;1.40;;;;;;;;;;4907562;29;20047;-76
2022/05/10 14:31:30;;;;;;;1.63;1.52;;;;;;;;;;4942336;29;20051;-75
2022/05/10 14:33:56;;;;;;;1.67;1.52;;;;;;;;;;4938232;29;20102;-75
2022/05/10 14:36:29;;;;;;;1.98;1.33;;;;;;;;;;4939640;28;20056;-75
2022/05/10 14:38:55;;;;;;;1.63;1.52;;;;;;;;;;4937707;29;20473;-75
2022/05/10 14:41:31;;;;;;;4.53;1.75;;;;;;;;;;4944199;29;20044;-74
2022/05/10 14:43:57;;;;;;;1.77;1.40;;;;;;;;;;4940418;29;20035;-73
2022/05/10 14:46:25;;;;;;;1.67;1.33;;;;;;;;;;4937319;29;20060;-78
2022/05/10 14:48:57;;;;;;;3.42;1.83;;;;;;;;;;4940164;29;20050;-76
2022/05/10 14:51:44;;;;;;;2.38;1.35;;;;;;;;;;4938790;28;20051;-74
2022/05/10 14:54:10;;;;;;;2.60;1.70;;;;;;;;;;4939291;29;20050;-75
2022/05/10 14:56:55;;;;;;;5.18;2.60;;;;;;;;;;4943415;29;20051;-76
2022/05/10 14:59:21;;;;;;;2.65;1.73;;;;;;;;;;4939086;29;20041;-73
2022/05/10 15:01:47;;;;;;;2.33;2.13;;;;;;;;;;4904251;29;20048;-74
2022/05/10 15:04:26;;;;;;;3.28;1.83;;;;;;;;;;4942022;29;20043;-74
2022/05/10 15:06:52;;;;;;;2.97;2.20;;;;;;;;;;4945701;29;20606;-74
2022/05/10 15:09:18;;;;;;;5.25;1.75;;;;;;;;;;4927859;29;20075;-75
2022/05/10 15:14:28;;;;;;;2.42;1.70;;;;;;;;;;4942254;29;20516;-74